sensor_id;sensor_type;location;lat;lon;timestamp;pressure;altitude;pressure_sealevel;temperature;humidity
41222;BME280;26952;42.884;23.918;2023-04-06T00:01:24;95544.34;;;-0.63;100.00
41222;BME280;26952;42.884;23.918;2023-04-06T00:03:50;95536.09;;;-0.57;100.00
41222;BME280;26952;42.884;23.918;2023-04-06T00:06:16;95513.47;;;-0.78;100.00
41222;BME280;26952;42.884;23.918;2023-04-06T00:08:41;95525.78;;;-0.69;100.00
41222;BME280;26952;42.884;23.918;2023-04-06T00:11:07;95516.56;;;-0.97;100.00
41222;BME280;26952;42.884;23.918;2023-04-06T00:13:32;95536.81;;;-0.89;100.00
41222;BME280;26952;42.884;23.918;2023-04-06T00:15:58;95541.81;;;-0.99;100.00
41222;BME280;26952;42.884;23.918;2023-04-06T00:18:23;95506.38;;;-1.11;100.00
41222;BME280;26952;42.884;23.918;2023-04-06T00:20:49;95554.72;;;-0.97;100.00
41222;BME280;26952;42.884;23.918;2023-04-06T00:23:16;95502.88;;;-1.22;100.00
41222;BME280;26952;42.884;23.918;2023-04-06T00:25:41;95526.84;;;-0.95;100.00
41222;BME280;26952;42.884;23.918;2023-04-06T00:28:07;95514.47;;;-0.92;100.00
41222;BME280;26952;42.884;23.918;2023-04-06T00:30:32;95500.00;;;-1.07;100.00
41222;BME280;26952;42.884;23.918;2023-04-06T00:32:58;95518.28;;;-0.85;100.00
41222;BME280;26952;42.884;23.918;2023-04-06T00:35:23;95519.56;;;-0.90;100.00
41222;BME280;26952;42.884;23.918;2023-04-06T00:37:48;95541.69;;;-0.74;100.00
41222;BME280;26952;42.884;23.918;2023-04-06T00:40:14;95513.94;;;-0.84;100.00
41222;BME280;26952;42.884;23.918;2023-04-06T00:42:41;95517.91;;;-0.91;100.00
41222;BME280;26952;42.884;23.918;2023-04-06T00:45:07;95534.31;;;-0.91;100.00
41222;BME280;26952;42.884;23.918;2023-04-06T00:47:33;95486.16;;;-1.18;100.00
41222;BME280;26952;42.884;23.918;2023-04-06T00:49:58;95514.81;;;-0.96;100.00
41222;BME280;26952;42.884;23.918;2023-04-06T00:52:24;95484.50;;;-1.19;100.00
41222;BME280;26952;42.884;23.918;2023-04-06T00:54:50;95481.28;;;-1.23;100.00
41222;BME280;26952;42.884;23.918;2023-04-06T00:57:15;95512.78;;;-1.04;100.00
41222;BME280;26952;42.884;23.918;2023-04-06T00:59:42;95499.94;;;-1.18;100.00
41222;BME280;26952;42.884;23.918;2023-04-06T01:02:08;95491.91;;;-1.26;100.00
41222;BME280;26952;42.884;23.918;2023-04-06T01:04:34;95496.28;;;-1.26;100.00
41222;BME280;26952;42.884;23.918;2023-04-06T01:06:59;95487.53;;;-1.25;100.00
41222;BME280;26952;42.884;23.918;2023-04-06T01:09:27;95468.53;;;-1.50;100.00
41222;BME280;26952;42.884;23.918;2023-04-06T01:11:52;95508.13;;;-1.11;100.00
41222;BME280;26952;42.884;23.918;2023-04-06T01:14:18;95490.19;;;-1.14;100.00
41222;BME280;26952;42.884;23.918;2023-04-06T01:16:43;95477.78;;;-1.22;100.00
41222;BME280;26952;42.884;23.918;2023-04-06T01:19:10;95479.47;;;-1.10;100.00
41222;BME280;26952;42.884;23.918;2023-04-06T01:21:40;95494.72;;;-1.05;100.00
41222;BME280;26952;42.884;23.918;2023-04-06T01:24:06;95472.00;;;-1.14;100.00
41222;BME280;26952;42.884;23.918;2023-04-06T01:26:33;95474.66;;;-1.03;100.00
41222;BME280;26952;42.884;23.918;2023-04-06T01:28:59;95477.25;;;-1.03;100.00
41222;BME280;26952;42.884;23.918;2023-04-06T01:31:24;95409.75;;;-1.38;100.00
41222;BME280;26952;42.884;23.918;2023-04-06T01:33:50;95447.44;;;-1.21;100.00
41222;BME280;26952;42.884;23.918;2023-04-06T01:36:16;95441.69;;;-1.38;100.00
41222;BME280;26952;42.884;23.918;2023-04-06T01:38:41;95478.97;;;-1.15;100.00
41222;BME280;26952;42.884;23.918;2023-04-06T01:41:07;95465.88;;;-1.13;100.00
41222;BME280;26952;42.884;23.918;2023-04-06T01:43:33;95485.97;;;-1.04;100.00
41222;BME280;26952;42.884;23.918;2023-04-06T01:45:59;95477.53;;;-1.19;100.00
41222;BME280;26952;42.884;23.918;2023-04-06T01:48:25;95465.31;;;-1.29;100.00
41222;BME280;26952;42.884;23.918;2023-04-06T01:50:50;95489.84;;;-1.10;100.00
41222;BME280;26952;42.884;23.918;2023-04-06T01:53:16;95479.78;;;-1.14;100.00
41222;BME280;26952;42.884;23.918;2023-04-06T01:55:41;95385.66;;;-1.64;100.00
41222;BME280;26952;42.884;23.918;2023-04-06T01:58:07;95457.81;;;-1.21;100.00
41222;BME280;26952;42.884;23.918;2023-04-06T02:00:32;95464.44;;;-1.17;100.00
41222;BME280;26952;42.884;23.918;2023-04-06T02:02:57;95451.59;;;-1.19;100.00
41222;BME280;26952;42.884;23.918;2023-04-06T02:05:23;95473.94;;;-1.05;100.00
41222;BME280;26952;42.884;23.918;2023-04-06T02:07:48;95451.00;;;-1.11;100.00
41222;BME280;26952;42.884;23.918;2023-04-06T02:10:14;95472.31;;;-0.95;100.00
41222;BME280;26952;42.884;23.918;2023-04-06T02:12:40;95448.19;;;-1.08;100.00
41222;BME280;26952;42.884;23.918;2023-04-06T02:15:06;95429.75;;;-1.16;100.00
41222;BME280;26952;42.884;23.918;2023-04-06T02:17:32;95447.75;;;-1.02;100.00
41222;BME280;26952;42.884;23.918;2023-04-06T02:19:57;95421.53;;;-1.10;100.00
41222;BME280;26952;42.884;23.918;2023-04-06T02:22:23;95448.78;;;-0.70;100.00
41222;BME280;26952;42.884;23.918;2023-04-06T02:24:48;95447.44;;;-0.87;100.00
41222;BME280;26952;42.884;23.918;2023-04-06T02:27:14;95461.78;;;-0.59;100.00
41222;BME280;26952;42.884;23.918;2023-04-06T02:29:39;95466.63;;;-0.55;100.00
41222;BME280;26952;42.884;23.918;2023-04-06T02:32:05;95438.66;;;-0.62;100.00
41222;BME280;26952;42.884;23.918;2023-04-06T02:34:31;95448.94;;;-0.50;100.00
41222;BME280;26952;42.884;23.918;2023-04-06T02:36:56;95442.97;;;-0.74;100.00
41222;BME280;26952;42.884;23.918;2023-04-06T02:39:22;95450.69;;;-0.50;100.00
41222;BME280;26952;42.884;23.918;2023-04-06T02:41:48;95445.06;;;-0.44;100.00
41222;BME280;26952;42.884;23.918;2023-04-06T02:44:13;95447.41;;;-0.41;100.00
41222;BME280;26952;42.884;23.918;2023-04-06T02:46:38;95464.22;;;-0.23;100.00
41222;BME280;26952;42.884;23.918;2023-04-06T02:49:04;95471.78;;;-0.09;100.00
41222;BME280;26952;42.884;23.918;2023-04-06T02:51:30;95453.22;;;-0.05;100.00
41222;BME280;26952;42.884;23.918;2023-04-06T02:53:55;95455.69;;;-0.03;100.00
41222;BME280;26952;42.884;23.918;2023-04-06T02:56:20;95450.28;;;0.00;100.00
41222;BME280;26952;42.884;23.918;2023-04-06T02:58:47;95444.59;;;0.06;100.00
41222;BME280;26952;42.884;23.918;2023-04-06T03:01:12;95439.03;;;-0.01;100.00
41222;BME280;26952;42.884;23.918;2023-04-06T03:03:38;95441.03;;;0.07;100.00
41222;BME280;26952;42.884;23.918;2023-04-06T03:06:03;95457.94;;;0.24;100.00
41222;BME280;26952;42.884;23.918;2023-04-06T03:08:29;95423.41;;;0.11;100.00
41222;BME280;26952;42.884;23.918;2023-04-06T03:10:55;95444.31;;;0.31;100.00
41222;BME280;26952;42.884;23.918;2023-04-06T03:13:21;95405.28;;;0.20;100.00
41222;BME280;26952;42.884;23.918;2023-04-06T03:15:46;95452.75;;;0.55;100.00
41222;BME280;26952;42.884;23.918;2023-04-06T03:18:12;95438.22;;;0.53;100.00
41222;BME280;26952;42.884;23.918;2023-04-06T03:20:37;95444.97;;;0.55;100.00
41222;BME280;26952;42.884;23.918;2023-04-06T03:23:03;95444.03;;;0.56;100.00
41222;BME280;26952;42.884;23.918;2023-04-06T03:25:28;95429.00;;;0.60;100.00
41222;BME280;26952;42.884;23.918;2023-04-06T03:27:55;95445.16;;;0.74;100.00
41222;BME280;26952;42.884;23.918;2023-04-06T03:30:21;95431.31;;;0.74;100.00
41222;BME280;26952;42.884;23.918;2023-04-06T03:32:46;95459.06;;;0.95;100.00
41222;BME280;26952;42.884;23.918;2023-04-06T03:35:12;95418.50;;;0.50;100.00
41222;BME280;26952;42.884;23.918;2023-04-06T03:37:37;95380.47;;;0.27;100.00
41222;BME280;26952;42.884;23.918;2023-04-06T03:40:04;95433.25;;;0.61;100.00
41222;BME280;26952;42.884;23.918;2023-04-06T03:42:30;95443.78;;;0.59;100.00
41222;BME280;26952;42.884;23.918;2023-04-06T03:44:56;95443.75;;;0.70;100.00
41222;BME280;26952;42.884;23.918;2023-04-06T03:47:22;95408.41;;;0.57;100.00
41222;BME280;26952;42.884;23.918;2023-04-06T03:49:48;95441.72;;;0.74;100.00
41222;BME280;26952;42.884;23.918;2023-04-06T03:52:13;95444.66;;;0.80;100.00
41222;BME280;26952;42.884;23.918;2023-04-06T03:54:38;95446.50;;;0.89;100.00
41222;BME280;26952;42.884;23.918;2023-04-06T03:57:04;95448.38;;;0.98;100.00
41222;BME280;26952;42.884;23.918;2023-04-06T03:59:29;95441.25;;;0.37;100.00
41222;BME280;26952;42.884;23.918;2023-04-06T04:01:55;95469.09;;;0.57;100.00
41222;BME280;26952;42.884;23.918;2023-04-06T04:04:20;95475.19;;;0.78;100.00
41222;BME280;26952;42.884;23.918;2023-04-06T04:06:46;95452.59;;;0.79;100.00
41222;BME280;26952;42.884;23.918;2023-04-06T04:09:11;95457.81;;;0.79;100.00
41222;BME280;26952;42.884;23.918;2023-04-06T04:11:37;95476.78;;;1.01;100.00
41222;BME280;26952;42.884;23.918;2023-04-06T04:14:02;95454.91;;;0.93;100.00
41222;BME280;26952;42.884;23.918;2023-04-06T04:16:28;95453.78;;;1.06;100.00
41222;BME280;26952;42.884;23.918;2023-04-06T04:18:54;95393.28;;;0.82;100.00
41222;BME280;26952;42.884;23.918;2023-04-06T04:21:19;95480.38;;;1.41;100.00
41222;BME280;26952;42.884;23.918;2023-04-06T04:23:45;95391.13;;;0.87;100.00
41222;BME280;26952;42.884;23.918;2023-04-06T04:26:10;95465.25;;;1.35;100.00
41222;BME280;26952;42.884;23.918;2023-04-06T04:28:36;95459.00;;;1.48;100.00
41222;BME280;26952;42.884;23.918;2023-04-06T04:31:01;95478.78;;;1.71;100.00
41222;BME280;26952;42.884;23.918;2023-04-06T04:33:27;95470.22;;;1.80;100.00
41222;BME280;26952;42.884;23.918;2023-04-06T04:35:52;95463.06;;;1.82;100.00
41222;BME280;26952;42.884;23.918;2023-04-06T04:38:17;95445.97;;;1.68;100.00
41222;BME280;26952;42.884;23.918;2023-04-06T04:40:43;95455.06;;;1.74;100.00
41222;BME280;26952;42.884;23.918;2023-04-06T04:43:08;95463.50;;;1.87;100.00
41222;BME280;26952;42.884;23.918;2023-04-06T04:45:34;95459.81;;;1.89;100.00
41222;BME280;26952;42.884;23.918;2023-04-06T04:47:59;95449.78;;;1.85;100.00
41222;BME280;26952;42.884;23.918;2023-04-06T04:50:25;95457.34;;;1.88;100.00
41222;BME280;26952;42.884;23.918;2023-04-06T04:52:50;95458.69;;;1.82;100.00
41222;BME280;26952;42.884;23.918;2023-04-06T04:55:16;95480.88;;;1.97;100.00
41222;BME280;26952;42.884;23.918;2023-04-06T04:57:42;95468.09;;;1.94;100.00
41222;BME280;26952;42.884;23.918;2023-04-06T05:00:08;95462.28;;;1.91;100.00
41222;BME280;26952;42.884;23.918;2023-04-06T05:02:33;95479.44;;;2.14;100.00
41222;BME280;26952;42.884;23.918;2023-04-06T05:04:59;95454.38;;;2.02;100.00
41222;BME280;26952;42.884;23.918;2023-04-06T05:07:25;95454.56;;;1.80;100.00
41222;BME280;26952;42.884;23.918;2023-04-06T05:09:50;95466.41;;;1.93;100.00
41222;BME280;26952;42.884;23.918;2023-04-06T05:12:16;95466.28;;;1.95;100.00
41222;BME280;26952;42.884;23.918;2023-04-06T05:14:41;95438.03;;;2.00;100.00
41222;BME280;26952;42.884;23.918;2023-04-06T05:17:07;95462.84;;;2.24;100.00
41222;BME280;26952;42.884;23.918;2023-04-06T05:19:32;95480.94;;;2.46;100.00
41222;BME280;26952;42.884;23.918;2023-04-06T05:21:58;95471.06;;;2.59;100.00
41222;BME280;26952;42.884;23.918;2023-04-06T05:24:23;95466.13;;;2.66;100.00
41222;BME280;26952;42.884;23.918;2023-04-06T05:26:49;95459.84;;;2.78;100.00
41222;BME280;26952;42.884;23.918;2023-04-06T05:29:15;95448.16;;;2.82;100.00
41222;BME280;26952;42.884;23.918;2023-04-06T05:31:42;95440.84;;;2.95;100.00
41222;BME280;26952;42.884;23.918;2023-04-06T05:34:07;95457.50;;;3.13;100.00
41222;BME280;26952;42.884;23.918;2023-04-06T05:36:34;95455.47;;;3.26;100.00
41222;BME280;26952;42.884;23.918;2023-04-06T05:39:00;95425.34;;;3.22;100.00
41222;BME280;26952;42.884;23.918;2023-04-06T05:41:25;95470.88;;;3.48;100.00
41222;BME280;26952;42.884;23.918;2023-04-06T05:43:51;95371.94;;;3.15;99.43
41222;BME280;26952;42.884;23.918;2023-04-06T05:46:16;95448.94;;;3.68;89.22
41222;BME280;26952;42.884;23.918;2023-04-06T05:48:42;95447.69;;;3.72;88.45
41222;BME280;26952;42.884;23.918;2023-04-06T05:51:07;95449.06;;;3.76;86.55
41222;BME280;26952;42.884;23.918;2023-04-06T05:53:33;95441.22;;;3.67;84.40
41222;BME280;26952;42.884;23.918;2023-04-06T05:56:02;95446.28;;;3.78;81.94
41222;BME280;26952;42.884;23.918;2023-04-06T05:58:28;95462.97;;;3.77;81.15
41222;BME280;26952;42.884;23.918;2023-04-06T06:00:59;95448.41;;;3.74;80.69
41222;BME280;26952;42.884;23.918;2023-04-06T06:03:25;95464.72;;;3.86;78.88
41222;BME280;26952;42.884;23.918;2023-04-06T06:05:50;95464.44;;;3.98;80.01
41222;BME280;26952;42.884;23.918;2023-04-06T06:08:16;95459.47;;;4.05;82.32
41222;BME280;26952;42.884;23.918;2023-04-06T06:10:41;95449.75;;;4.15;84.59
41222;BME280;26952;42.884;23.918;2023-04-06T06:13:06;95456.84;;;4.42;84.76
41222;BME280;26952;42.884;23.918;2023-04-06T06:15:32;95435.56;;;4.45;84.94
41222;BME280;26952;42.884;23.918;2023-04-06T06:17:57;95448.47;;;4.56;78.32
41222;BME280;26952;42.884;23.918;2023-04-06T06:20:23;95446.06;;;4.72;78.91
41222;BME280;26952;42.884;23.918;2023-04-06T06:22:48;95440.84;;;4.89;80.08
41222;BME280;26952;42.884;23.918;2023-04-06T06:25:14;95434.69;;;4.98;79.26
41222;BME280;26952;42.884;23.918;2023-04-06T06:27:39;95451.41;;;5.15;73.72
41222;BME280;26952;42.884;23.918;2023-04-06T06:30:05;95430.75;;;4.94;72.41
41222;BME280;26952;42.884;23.918;2023-04-06T06:32:31;95438.16;;;4.99;72.74
41222;BME280;26952;42.884;23.918;2023-04-06T06:34:57;95417.03;;;4.83;71.26
41222;BME280;26952;42.884;23.918;2023-04-06T06:37:22;95424.50;;;4.95;69.92
41222;BME280;26952;42.884;23.918;2023-04-06T06:39:48;95447.88;;;5.06;70.73
41222;BME280;26952;42.884;23.918;2023-04-06T06:42:13;95449.97;;;5.20;71.82
41222;BME280;26952;42.884;23.918;2023-04-06T06:44:39;95438.91;;;5.09;69.94
41222;BME280;26952;42.884;23.918;2023-04-06T06:47:04;95411.94;;;4.54;70.72
41222;BME280;26952;42.884;23.918;2023-04-06T06:49:30;95440.47;;;5.02;74.39
41222;BME280;26952;42.884;23.918;2023-04-06T06:51:55;95447.59;;;5.27;71.29
41222;BME280;26952;42.884;23.918;2023-04-06T06:54:20;95432.22;;;4.97;69.30
41222;BME280;26952;42.884;23.918;2023-04-06T06:56:46;95424.66;;;5.11;69.64
41222;BME280;26952;42.884;23.918;2023-04-06T06:59:11;95421.59;;;5.16;68.70
41222;BME280;26952;42.884;23.918;2023-04-06T07:01:37;95433.56;;;5.36;69.50
41222;BME280;26952;42.884;23.918;2023-04-06T07:04:02;95435.53;;;5.16;68.44
41222;BME280;26952;42.884;23.918;2023-04-06T07:06:28;95421.81;;;4.87;71.71
41222;BME280;26952;42.884;23.918;2023-04-06T07:08:53;95417.31;;;4.53;69.91
41222;BME280;26952;42.884;23.918;2023-04-06T07:11:19;95418.50;;;4.41;71.58
41222;BME280;26952;42.884;23.918;2023-04-06T07:13:44;95431.75;;;4.84;71.81
41222;BME280;26952;42.884;23.918;2023-04-06T07:16:10;95423.81;;;5.11;71.78
41222;BME280;26952;42.884;23.918;2023-04-06T07:18:35;95432.38;;;5.13;74.78
41222;BME280;26952;42.884;23.918;2023-04-06T07:21:01;95439.00;;;5.17;71.81
41222;BME280;26952;42.884;23.918;2023-04-06T07:23:26;95431.56;;;5.73;74.27
41222;BME280;26952;42.884;23.918;2023-04-06T07:25:51;95439.09;;;6.19;71.60
41222;BME280;26952;42.884;23.918;2023-04-06T07:28:19;95398.75;;;6.28;67.29
41222;BME280;26952;42.884;23.918;2023-04-06T07:30:44;95413.56;;;6.37;66.35
41222;BME280;26952;42.884;23.918;2023-04-06T07:33:10;95412.97;;;6.43;66.11
41222;BME280;26952;42.884;23.918;2023-04-06T07:35:35;95421.72;;;6.60;65.24
41222;BME280;26952;42.884;23.918;2023-04-06T07:38:02;95346.91;;;5.79;67.98
41222;BME280;26952;42.884;23.918;2023-04-06T07:40:27;95406.06;;;6.50;68.16
41222;BME280;26952;42.884;23.918;2023-04-06T07:42:53;95340.78;;;6.30;66.30
41222;BME280;26952;42.884;23.918;2023-04-06T07:45:18;95396.78;;;6.72;69.61
41222;BME280;26952;42.884;23.918;2023-04-06T07:47:44;95408.81;;;6.41;66.73
41222;BME280;26952;42.884;23.918;2023-04-06T07:50:10;95416.41;;;6.44;65.94
41222;BME280;26952;42.884;23.918;2023-04-06T07:52:36;95400.41;;;6.71;65.43
41222;BME280;26952;42.884;23.918;2023-04-06T07:55:01;95400.78;;;6.84;62.94
41222;BME280;26952;42.884;23.918;2023-04-06T07:57:27;95414.19;;;6.73;62.65
41222;BME280;26952;42.884;23.918;2023-04-06T07:59:52;95419.88;;;6.52;62.98
41222;BME280;26952;42.884;23.918;2023-04-06T08:02:18;95384.41;;;6.56;61.44
41222;BME280;26952;42.884;23.918;2023-04-06T08:04:44;95401.63;;;7.17;61.62
41222;BME280;26952;42.884;23.918;2023-04-06T08:07:09;95379.09;;;7.06;65.10
41222;BME280;26952;42.884;23.918;2023-04-06T08:09:35;95396.72;;;7.70;58.86
41222;BME280;26952;42.884;23.918;2023-04-06T08:12:00;95402.63;;;7.32;59.00
41222;BME280;26952;42.884;23.918;2023-04-06T08:14:26;95415.13;;;7.46;62.79
41222;BME280;26952;42.884;23.918;2023-04-06T08:16:52;95413.16;;;7.96;60.05
41222;BME280;26952;42.884;23.918;2023-04-06T08:19:17;95417.03;;;6.95;60.21
41222;BME280;26952;42.884;23.918;2023-04-06T08:21:44;95384.88;;;7.50;60.93
41222;BME280;26952;42.884;23.918;2023-04-06T08:24:11;95245.56;;;6.68;58.83
41222;BME280;26952;42.884;23.918;2023-04-06T08:26:36;95419.75;;;7.84;59.50
41222;BME280;26952;42.884;23.918;2023-04-06T08:29:02;95372.88;;;8.34;57.33
41222;BME280;26952;42.884;23.918;2023-04-06T08:31:29;95387.28;;;9.38;57.78
41222;BME280;26952;42.884;23.918;2023-04-06T08:33:55;95367.63;;;9.77;56.72
41222;BME280;26952;42.884;23.918;2023-04-06T08:36:21;95381.38;;;10.25;51.54
41222;BME280;26952;42.884;23.918;2023-04-06T08:38:48;95392.91;;;8.51;55.47
41222;BME280;26952;42.884;23.918;2023-04-06T08:41:15;95396.41;;;8.74;54.38
41222;BME280;26952;42.884;23.918;2023-04-06T08:43:58;95412.91;;;9.07;54.19
41222;BME280;26952;42.884;23.918;2023-04-06T08:46:24;95390.72;;;8.08;54.37
41222;BME280;26952;42.884;23.918;2023-04-06T08:48:56;95389.34;;;8.36;58.10
41222;BME280;26952;42.884;23.918;2023-04-06T08:51:26;95394.84;;;8.65;55.35
41222;BME280;26952;42.884;23.918;2023-04-06T08:53:55;95391.47;;;9.02;54.49
41222;BME280;26952;42.884;23.918;2023-04-06T08:56:25;95397.22;;;8.44;57.07
41222;BME280;26952;42.884;23.918;2023-04-06T08:58:52;95388.81;;;8.79;55.40
41222;BME280;26952;42.884;23.918;2023-04-06T09:01:20;95400.31;;;7.85;56.35
41222;BME280;26952;42.884;23.918;2023-04-06T09:03:46;95375.66;;;8.40;57.23
41222;BME280;26952;42.884;23.918;2023-04-06T09:06:13;95398.50;;;7.77;58.34
41222;BME280;26952;42.884;23.918;2023-04-06T09:08:41;95391.44;;;7.70;58.64
41222;BME280;26952;42.884;23.918;2023-04-06T09:11:07;95397.50;;;7.86;56.69
41222;BME280;26952;42.884;23.918;2023-04-06T09:13:50;95378.50;;;8.23;55.83
41222;BME280;26952;42.884;23.918;2023-04-06T09:16:16;95357.75;;;9.34;51.47
41222;BME280;26952;42.884;23.918;2023-04-06T09:18:42;95351.59;;;9.19;50.93
41222;BME280;26952;42.884;23.918;2023-04-06T09:21:08;95373.34;;;8.76;54.37
41222;BME280;26952;42.884;23.918;2023-04-06T09:23:34;95371.59;;;8.61;54.98
41222;BME280;26952;42.884;23.918;2023-04-06T09:26:14;95400.41;;;8.07;54.64
41222;BME280;26952;42.884;23.918;2023-04-06T09:29:09;95390.94;;;8.45;54.99
41222;BME280;26952;42.884;23.918;2023-04-06T09:31:35;95391.16;;;9.27;54.20
41222;BME280;26952;42.884;23.918;2023-04-06T09:34:00;95388.91;;;9.61;53.12
41222;BME280;26952;42.884;23.918;2023-04-06T09:36:33;95369.59;;;8.93;51.31
41222;BME280;26952;42.884;23.918;2023-04-06T09:39:01;95367.59;;;8.95;53.39
41222;BME280;26952;42.884;23.918;2023-04-06T09:41:28;95362.91;;;8.52;52.70
41222;BME280;26952;42.884;23.918;2023-04-06T09:44:11;95365.84;;;7.94;55.82
41222;BME280;26952;42.884;23.918;2023-04-06T09:46:39;95345.19;;;7.51;56.06
41222;BME280;26952;42.884;23.918;2023-04-06T09:49:06;95373.69;;;7.40;58.16
41222;BME280;26952;42.884;23.918;2023-04-06T09:51:45;95371.00;;;7.96;55.83
41222;BME280;26952;42.884;23.918;2023-04-06T09:54:21;95353.31;;;8.59;56.82
41222;BME280;26952;42.884;23.918;2023-04-06T09:56:51;95363.34;;;8.94;53.61
41222;BME280;26952;42.884;23.918;2023-04-06T10:02:30;95380.84;;;8.02;54.31
41222;BME280;26952;42.884;23.918;2023-04-06T10:05:03;95376.34;;;8.34;53.15
41222;BME280;26952;42.884;23.918;2023-04-06T10:07:30;95366.97;;;8.16;51.50
41222;BME280;26952;42.884;23.918;2023-04-06T10:09:57;95355.91;;;8.20;52.32
41222;BME280;26952;42.884;23.918;2023-04-06T10:12:24;95326.75;;;8.14;51.25
41222;BME280;26952;42.884;23.918;2023-04-06T10:14:50;95362.59;;;8.47;52.56
41222;BME280;26952;42.884;23.918;2023-04-06T10:17:16;95373.34;;;8.37;52.91
41222;BME280;26952;42.884;23.918;2023-04-06T10:19:49;95338.69;;;8.49;52.84
41222;BME280;26952;42.884;23.918;2023-04-06T10:22:24;95381.16;;;8.23;52.86
41222;BME280;26952;42.884;23.918;2023-04-06T10:24:51;95353.75;;;7.69;52.94
41222;BME280;26952;42.884;23.918;2023-04-06T10:27:27;95357.78;;;8.04;57.74
41222;BME280;26952;42.884;23.918;2023-04-06T10:29:52;95382.06;;;8.46;53.96
41222;BME280;26952;42.884;23.918;2023-04-06T10:32:18;95370.59;;;8.23;53.60
41222;BME280;26952;42.884;23.918;2023-04-06T10:34:43;95350.63;;;8.28;52.88
41222;BME280;26952;42.884;23.918;2023-04-06T10:37:16;95373.72;;;8.65;52.27
41222;BME280;26952;42.884;23.918;2023-04-06T10:39:51;95354.91;;;8.68;52.80
41222;BME280;26952;42.884;23.918;2023-04-06T10:42:24;95364.53;;;8.53;53.28
41222;BME280;26952;42.884;23.918;2023-04-06T10:44:50;95346.38;;;8.58;53.65
41222;BME280;26952;42.884;23.918;2023-04-06T10:47:17;95340.88;;;8.68;53.32
41222;BME280;26952;42.884;23.918;2023-04-06T10:49:45;95375.50;;;8.73;52.60
41222;BME280;26952;42.884;23.918;2023-04-06T10:52:11;95355.16;;;8.81;52.63
41222;BME280;26952;42.884;23.918;2023-04-06T10:54:41;95354.06;;;8.98;52.66
41222;BME280;26952;42.884;23.918;2023-04-06T10:57:08;95350.69;;;8.59;52.12
41222;BME280;26952;42.884;23.918;2023-04-06T10:59:33;95346.72;;;8.16;54.38
41222;BME280;26952;42.884;23.918;2023-04-06T11:01:59;95293.63;;;7.81;55.14
41222;BME280;26952;42.884;23.918;2023-04-06T11:04:25;95362.69;;;8.23;57.47
41222;BME280;26952;42.884;23.918;2023-04-06T11:06:50;95324.63;;;8.25;57.61
41222;BME280;26952;42.884;23.918;2023-04-06T11:09:29;95351.28;;;7.68;56.54
41222;BME280;26952;42.884;23.918;2023-04-06T11:11:56;95229.63;;;7.10;57.41
41222;BME280;26952;42.884;23.918;2023-04-06T11:14:22;95331.56;;;7.16;57.79
41222;BME280;26952;42.884;23.918;2023-04-06T11:16:48;95365.44;;;7.35;59.01
41222;BME280;26952;42.884;23.918;2023-04-06T11:19:15;95339.28;;;7.41;57.92
41222;BME280;26952;42.884;23.918;2023-04-06T11:21:46;95340.63;;;7.37;57.29
41222;BME280;26952;42.884;23.918;2023-04-06T11:24:16;95357.50;;;7.91;57.82
41222;BME280;26952;42.884;23.918;2023-04-06T11:26:49;95324.22;;;7.90;55.37
41222;BME280;26952;42.884;23.918;2023-04-06T11:29:21;95337.63;;;8.19;56.21
41222;BME280;26952;42.884;23.918;2023-04-06T11:31:51;95339.81;;;8.54;54.87
41222;BME280;26952;42.884;23.918;2023-04-06T11:34:19;95338.44;;;8.66;54.65
41222;BME280;26952;42.884;23.918;2023-04-06T11:36:46;95334.41;;;8.48;52.87
41222;BME280;26952;42.884;23.918;2023-04-06T11:39:13;95303.34;;;8.58;54.38
41222;BME280;26952;42.884;23.918;2023-04-06T11:41:39;95331.81;;;8.70;52.46
41222;BME280;26952;42.884;23.918;2023-04-06T11:44:05;95347.16;;;8.36;54.60
41222;BME280;26952;42.884;23.918;2023-04-06T11:46:31;95323.66;;;8.57;55.07
41222;BME280;26952;42.884;23.918;2023-04-06T11:49:01;95338.94;;;8.62;53.38
41222;BME280;26952;42.884;23.918;2023-04-06T11:51:27;95340.75;;;8.22;56.03
41222;BME280;26952;42.884;23.918;2023-04-06T11:53:54;95326.78;;;8.06;54.62
41222;BME280;26952;42.884;23.918;2023-04-06T11:56:27;95327.97;;;8.03;56.50
41222;BME280;26952;42.884;23.918;2023-04-06T11:58:58;95338.34;;;8.05;57.12
41222;BME280;26952;42.884;23.918;2023-04-06T12:01:25;95334.41;;;8.48;55.35
41222;BME280;26952;42.884;23.918;2023-04-06T12:03:52;95329.53;;;8.67;54.92
41222;BME280;26952;42.884;23.918;2023-04-06T12:06:17;95337.00;;;8.86;53.82
41222;BME280;26952;42.884;23.918;2023-04-06T12:08:43;95320.34;;;8.86;52.72
41222;BME280;26952;42.884;23.918;2023-04-06T12:11:10;95330.06;;;9.08;52.83
41222;BME280;26952;42.884;23.918;2023-04-06T12:13:35;95315.59;;;8.81;53.72
41222;BME280;26952;42.884;23.918;2023-04-06T12:16:01;95326.91;;;8.67;52.97
41222;BME280;26952;42.884;23.918;2023-04-06T12:18:26;95314.09;;;8.79;55.57
41222;BME280;26952;42.884;23.918;2023-04-06T12:20:52;95313.91;;;8.88;54.78
41222;BME280;26952;42.884;23.918;2023-04-06T12:23:19;95333.81;;;8.91;53.52
41222;BME280;26952;42.884;23.918;2023-04-06T12:25:45;95339.03;;;8.76;53.81
41222;BME280;26952;42.884;23.918;2023-04-06T12:28:10;95316.66;;;8.33;54.36
41222;BME280;26952;42.884;23.918;2023-04-06T12:30:36;95319.78;;;8.37;56.06
41222;BME280;26952;42.884;23.918;2023-04-06T12:33:01;95326.94;;;8.59;53.98
41222;BME280;26952;42.884;23.918;2023-04-06T12:35:27;95287.81;;;7.93;54.26
41222;BME280;26952;42.884;23.918;2023-04-06T12:37:52;95292.59;;;7.90;56.66
41222;BME280;26952;42.884;23.918;2023-04-06T12:40:18;95321.22;;;7.93;55.48
41222;BME280;26952;42.884;23.918;2023-04-06T12:42:43;95325.13;;;8.13;55.42
41222;BME280;26952;42.884;23.918;2023-04-06T12:45:11;95332.41;;;8.03;54.90
41222;BME280;26952;42.884;23.918;2023-04-06T12:47:37;95327.66;;;7.98;56.68
41222;BME280;26952;42.884;23.918;2023-04-06T12:50:04;95303.78;;;7.92;58.76
41222;BME280;26952;42.884;23.918;2023-04-06T12:52:31;95312.25;;;8.18;57.25